sensor_id;sensor_type;location;lat;lon;timestamp;P1;durP1;ratioP1;P2;durP2;ratioP2
52734;SDS011;38631;47.572;10.704;2024-02-28T00:03:32;28.70;;;18.30;;
52734;SDS011;38631;47.572;10.704;2024-02-28T00:34:36;31.33;;;18.92;;
52734;SDS011;38631;47.572;10.704;2024-02-28T00:37:07;30.13;;;18.27;;
52734;SDS011;38631;47.572;10.704;2024-02-28T00:39:58;26.02;;;16.98;;
52734;SDS011;38631;47.572;10.704;2024-02-28T00:42:45;29.33;;;17.65;;
52734;SDS011;38631;47.572;10.704;2024-02-28T00:59:05;33.05;;;16.75;;
52734;SDS011;38631;47.572;10.704;2024-02-28T01:01:31;29.20;;;17.58;;
52734;SDS011;38631;47.572;10.704;2024-02-28T01:03:56;27.02;;;17.65;;
52734;SDS011;38631;47.572;10.704;2024-02-28T01:06:22;27.45;;;16.33;;
52734;SDS011;38631;47.572;10.704;2024-02-28T01:08:47;27.60;;;16.50;;
52734;SDS011;38631;47.572;10.704;2024-02-28T01:11:12;27.63;;;16.52;;
52734;SDS011;38631;47.572;10.704;2024-02-28T01:13:37;25.93;;;17.20;;
52734;SDS011;38631;47.572;10.704;2024-02-28T01:16:02;29.23;;;18.20;;
52734;SDS011;38631;47.572;10.704;2024-02-28T01:18:28;30.75;;;17.60;;
52734;SDS011;38631;47.572;10.704;2024-02-28T01:20:55;30.65;;;18.65;;
52734;SDS011;38631;47.572;10.704;2024-02-28T01:23:21;30.13;;;19.13;;
52734;SDS011;38631;47.572;10.704;2024-02-28T01:25:46;30.17;;;19.13;;
52734;SDS011;38631;47.572;10.704;2024-02-28T01:28:11;29.70;;;18.47;;
52734;SDS011;38631;47.572;10.704;2024-02-28T01:30:36;26.33;;;17.87;;
52734;SDS011;38631;47.572;10.704;2024-02-28T01:33:01;30.17;;;18.47;;
52734;SDS011;38631;47.572;10.704;2024-02-28T01:35:26;29.97;;;18.80;;
52734;SDS011;38631;47.572;10.704;2024-02-28T01:37:52;29.10;;;19.23;;
52734;SDS011;38631;47.572;10.704;2024-02-28T01:40:17;28.67;;;18.17;;
52734;SDS011;38631;47.572;10.704;2024-02-28T01:42:42;28.10;;;17.17;;
52734;SDS011;38631;47.572;10.704;2024-02-28T01:45:09;31.30;;;18.60;;
52734;SDS011;38631;47.572;10.704;2024-02-28T01:50:02;26.00;;;17.50;;
52734;SDS011;38631;47.572;10.704;2024-02-28T01:52:28;29.35;;;18.52;;
52734;SDS011;38631;47.572;10.704;2024-02-28T01:54:53;32.13;;;19.63;;
52734;SDS011;38631;47.572;10.704;2024-02-28T01:57:19;31.10;;;19.77;;
52734;SDS011;38631;47.572;10.704;2024-02-28T01:59:44;29.70;;;19.52;;
52734;SDS011;38631;47.572;10.704;2024-02-28T02:02:10;27.63;;;17.98;;
52734;SDS011;38631;47.572;10.704;2024-02-28T02:04:35;28.37;;;18.47;;
52734;SDS011;38631;47.572;10.704;2024-02-28T02:07:01;29.60;;;18.27;;
52734;SDS011;38631;47.572;10.704;2024-02-28T02:09:26;30.42;;;17.77;;
52734;SDS011;38631;47.572;10.704;2024-02-28T02:11:51;30.87;;;18.93;;
52734;SDS011;38631;47.572;10.704;2024-02-28T02:14:17;33.33;;;17.48;;
52734;SDS011;38631;47.572;10.704;2024-02-28T02:16:42;28.27;;;17.98;;
52734;SDS011;38631;47.572;10.704;2024-02-28T02:19:08;29.47;;;18.53;;
52734;SDS011;38631;47.572;10.704;2024-02-28T02:21:37;28.00;;;17.83;;
52734;SDS011;38631;47.572;10.704;2024-02-28T02:24:05;27.67;;;18.38;;
52734;SDS011;38631;47.572;10.704;2024-02-28T02:26:30;28.27;;;17.80;;
52734;SDS011;38631;47.572;10.704;2024-02-28T02:28:56;27.48;;;17.73;;
52734;SDS011;38631;47.572;10.704;2024-02-28T02:31:21;31.60;;;18.40;;
52734;SDS011;38631;47.572;10.704;2024-02-28T02:33:46;27.30;;;17.83;;
52734;SDS011;38631;47.572;10.704;2024-02-28T02:36:11;28.98;;;17.45;;
52734;SDS011;38631;47.572;10.704;2024-02-28T02:38:36;29.30;;;19.17;;
52734;SDS011;38631;47.572;10.704;2024-02-28T02:41:02;26.45;;;16.73;;
52734;SDS011;38631;47.572;10.704;2024-02-28T02:46:02;28.40;;;18.33;;
52734;SDS011;38631;47.572;10.704;2024-02-28T02:48:28;30.05;;;17.88;;
52734;SDS011;38631;47.572;10.704;2024-02-28T02:50:53;28.20;;;18.17;;
52734;SDS011;38631;47.572;10.704;2024-02-28T02:53:18;30.95;;;20.00;;
52734;SDS011;38631;47.572;10.704;2024-02-28T02:55:44;30.02;;;19.60;;
52734;SDS011;38631;47.572;10.704;2024-02-28T02:58:09;31.23;;;18.60;;
52734;SDS011;38631;47.572;10.704;2024-02-28T03:00:34;29.60;;;18.30;;
52734;SDS011;38631;47.572;10.704;2024-02-28T03:03:00;28.05;;;17.40;;
52734;SDS011;38631;47.572;10.704;2024-02-28T03:05:26;28.83;;;18.80;;
52734;SDS011;38631;47.572;10.704;2024-02-28T03:07:51;30.17;;;19.60;;
52734;SDS011;38631;47.572;10.704;2024-02-28T03:10:16;28.37;;;18.23;;
52734;SDS011;38631;47.572;10.704;2024-02-28T03:12:41;29.30;;;18.27;;
52734;SDS011;38631;47.572;10.704;2024-02-28T03:15:07;29.23;;;18.97;;
52734;SDS011;38631;47.572;10.704;2024-02-28T03:17:32;29.63;;;19.58;;
52734;SDS011;38631;47.572;10.704;2024-02-28T03:19:58;30.30;;;18.88;;
52734;SDS011;38631;47.572;10.704;2024-02-28T03:22:23;34.17;;;19.13;;
52734;SDS011;38631;47.572;10.704;2024-02-28T03:24:48;29.97;;;20.10;;
52734;SDS011;38631;47.572;10.704;2024-02-28T03:27:13;28.25;;;18.42;;
52734;SDS011;38631;47.572;10.704;2024-02-28T03:29:39;28.35;;;18.13;;
52734;SDS011;38631;47.572;10.704;2024-02-28T03:32:04;29.63;;;18.93;;
52734;SDS011;38631;47.572;10.704;2024-02-28T03:34:29;29.85;;;18.58;;
52734;SDS011;38631;47.572;10.704;2024-02-28T03:36:55;29.60;;;19.35;;
52734;SDS011;38631;47.572;10.704;2024-02-28T03:39:20;29.48;;;19.17;;
52734;SDS011;38631;47.572;10.704;2024-02-28T03:41:45;28.13;;;18.17;;
52734;SDS011;38631;47.572;10.704;2024-02-28T03:46:55;31.00;;;19.92;;
52734;SDS011;38631;47.572;10.704;2024-02-28T03:49:22;27.75;;;17.90;;
52734;SDS011;38631;47.572;10.704;2024-02-28T03:51:53;31.98;;;18.73;;
52734;SDS011;38631;47.572;10.704;2024-02-28T03:54:18;29.30;;;18.60;;
52734;SDS011;38631;47.572;10.704;2024-02-28T03:59:36;28.80;;;17.77;;
52734;SDS011;38631;47.572;10.704;2024-02-28T04:02:03;27.75;;;19.60;;
52734;SDS011;38631;47.572;10.704;2024-02-28T04:04:28;28.58;;;18.80;;
52734;SDS011;38631;47.572;10.704;2024-02-28T04:06:54;30.50;;;19.33;;
52734;SDS011;38631;47.572;10.704;2024-02-28T04:09:27;29.67;;;18.35;;
52734;SDS011;38631;47.572;10.704;2024-02-28T04:12:20;29.33;;;18.40;;
52734;SDS011;38631;47.572;10.704;2024-02-28T04:14:48;34.28;;;19.45;;
52734;SDS011;38631;47.572;10.704;2024-02-28T04:17:17;32.67;;;20.83;;
52734;SDS011;38631;47.572;10.704;2024-02-28T04:19:43;27.60;;;18.23;;
52734;SDS011;38631;47.572;10.704;2024-02-28T04:22:13;28.27;;;18.17;;
52734;SDS011;38631;47.572;10.704;2024-02-28T04:24:40;30.17;;;18.67;;
52734;SDS011;38631;47.572;10.704;2024-02-28T04:27:06;32.70;;;18.40;;
52734;SDS011;38631;47.572;10.704;2024-02-28T04:29:36;28.92;;;19.42;;
52734;SDS011;38631;47.572;10.704;2024-02-28T04:32:02;25.08;;;18.13;;
52734;SDS011;38631;47.572;10.704;2024-02-28T04:34:28;32.13;;;19.65;;
52734;SDS011;38631;47.572;10.704;2024-02-28T04:36:56;28.75;;;18.67;;
52734;SDS011;38631;47.572;10.704;2024-02-28T04:39:32;29.50;;;18.65;;
52734;SDS011;38631;47.572;10.704;2024-02-28T04:42:07;30.55;;;19.50;;
52734;SDS011;38631;47.572;10.704;2024-02-28T04:44:41;29.17;;;19.30;;
52734;SDS011;38631;47.572;10.704;2024-02-28T04:47:13;28.45;;;19.05;;
52734;SDS011;38631;47.572;10.704;2024-02-28T04:49:44;31.63;;;20.55;;
52734;SDS011;38631;47.572;10.704;2024-02-28T04:52:47;32.42;;;20.35;;
52734;SDS011;38631;47.572;10.704;2024-02-28T04:55:12;31.88;;;18.83;;
52734;SDS011;38631;47.572;10.704;2024-02-28T04:57:38;27.85;;;17.85;;
52734;SDS011;38631;47.572;10.704;2024-02-28T05:00:03;29.60;;;19.38;;
52734;SDS011;38631;47.572;10.704;2024-02-28T05:02:32;30.33;;;18.73;;
52734;SDS011;38631;47.572;10.704;2024-02-28T05:08:59;28.98;;;19.38;;
52734;SDS011;38631;47.572;10.704;2024-02-28T05:11:28;28.35;;;18.58;;
52734;SDS011;38631;47.572;10.704;2024-02-28T05:14:37;30.17;;;18.27;;
52734;SDS011;38631;47.572;10.704;2024-02-28T05:17:40;29.30;;;17.65;;
52734;SDS011;38631;47.572;10.704;2024-02-28T05:23:05;29.48;;;19.88;;
52734;SDS011;38631;47.572;10.704;2024-02-28T05:26:13;29.90;;;18.13;;
52734;SDS011;38631;47.572;10.704;2024-02-28T05:31:40;28.58;;;18.13;;
52734;SDS011;38631;47.572;10.704;2024-02-28T05:34:07;31.63;;;18.73;;
52734;SDS011;38631;47.572;10.704;2024-02-28T05:36:41;29.95;;;18.27;;
52734;SDS011;38631;47.572;10.704;2024-02-28T05:39:32;31.75;;;19.63;;
52734;SDS011;38631;47.572;10.704;2024-02-28T05:42:01;32.10;;;19.73;;
52734;SDS011;38631;47.572;10.704;2024-02-28T05:44:26;32.55;;;19.98;;
52734;SDS011;38631;47.572;10.704;2024-02-28T05:46:55;31.35;;;19.95;;
52734;SDS011;38631;47.572;10.704;2024-02-28T05:49:23;32.33;;;20.55;;
52734;SDS011;38631;47.572;10.704;2024-02-28T05:52:11;31.13;;;19.10;;
52734;SDS011;38631;47.572;10.704;2024-02-28T05:54:41;29.48;;;18.63;;
52734;SDS011;38631;47.572;10.704;2024-02-28T05:57:12;27.73;;;18.35;;
52734;SDS011;38631;47.572;10.704;2024-02-28T05:59:46;28.95;;;19.42;;
52734;SDS011;38631;47.572;10.704;2024-02-28T06:02:27;28.13;;;18.80;;
52734;SDS011;38631;47.572;10.704;2024-02-28T06:04:54;33.40;;;20.33;;
52734;SDS011;38631;47.572;10.704;2024-02-28T06:07:21;31.92;;;20.25;;
52734;SDS011;38631;47.572;10.704;2024-02-28T06:09:52;33.88;;;19.25;;
52734;SDS011;38631;47.572;10.704;2024-02-28T06:12:17;32.45;;;19.77;;
52734;SDS011;38631;47.572;10.704;2024-02-28T06:14:44;30.98;;;20.08;;
52734;SDS011;38631;47.572;10.704;2024-02-28T06:17:26;31.42;;;20.65;;
52734;SDS011;38631;47.572;10.704;2024-02-28T06:19:55;30.63;;;20.27;;
52734;SDS011;38631;47.572;10.704;2024-02-28T06:22:21;32.30;;;19.85;;
52734;SDS011;38631;47.572;10.704;2024-02-28T06:27:26;30.63;;;19.17;;
52734;SDS011;38631;47.572;10.704;2024-02-28T06:29:52;32.80;;;19.77;;
52734;SDS011;38631;47.572;10.704;2024-02-28T06:32:17;33.65;;;20.27;;
52734;SDS011;38631;47.572;10.704;2024-02-28T06:34:44;40.20;;;23.92;;
52734;SDS011;38631;47.572;10.704;2024-02-28T06:37:10;38.55;;;23.60;;
52734;SDS011;38631;47.572;10.704;2024-02-28T06:39:44;47.50;;;25.85;;
52734;SDS011;38631;47.572;10.704;2024-02-28T06:42:10;54.45;;;27.88;;
52734;SDS011;38631;47.572;10.704;2024-02-28T06:44:36;75.50;;;37.25;;
52734;SDS011;38631;47.572;10.704;2024-02-28T06:47:01;58.97;;;30.67;;
52734;SDS011;38631;47.572;10.704;2024-02-28T06:49:27;65.15;;;31.05;;
52734;SDS011;38631;47.572;10.704;2024-02-28T06:51:55;57.80;;;28.85;;
52734;SDS011;38631;47.572;10.704;2024-02-28T06:54:25;57.10;;;31.02;;
52734;SDS011;38631;47.572;10.704;2024-02-28T06:56:51;63.50;;;30.70;;
52734;SDS011;38631;47.572;10.704;2024-02-28T06:59:17;62.92;;;30.13;;
52734;SDS011;38631;47.572;10.704;2024-02-28T07:01:43;60.80;;;30.63;;
52734;SDS011;38631;47.572;10.704;2024-02-28T07:04:08;62.65;;;31.02;;
52734;SDS011;38631;47.572;10.704;2024-02-28T07:06:34;65.88;;;31.17;;
52734;SDS011;38631;47.572;10.704;2024-02-28T07:08:59;66.78;;;30.00;;
52734;SDS011;38631;47.572;10.704;2024-02-28T07:11:25;56.75;;;29.75;;
52734;SDS011;38631;47.572;10.704;2024-02-28T07:13:52;63.85;;;29.10;;
52734;SDS011;38631;47.572;10.704;2024-02-28T07:16:18;62.88;;;29.98;;
52734;SDS011;38631;47.572;10.704;2024-02-28T07:18:43;57.72;;;29.52;;
52734;SDS011;38631;47.572;10.704;2024-02-28T07:21:08;58.67;;;30.67;;
52734;SDS011;38631;47.572;10.704;2024-02-28T07:23:34;56.10;;;29.02;;
52734;SDS011;38631;47.572;10.704;2024-02-28T07:25:59;60.88;;;29.02;;
52734;SDS011;38631;47.572;10.704;2024-02-28T07:28:25;53.78;;;29.90;;
52734;SDS011;38631;47.572;10.704;2024-02-28T07:30:53;63.63;;;29.98;;
52734;SDS011;38631;47.572;10.704;2024-02-28T07:33:19;57.70;;;30.10;;
52734;SDS011;38631;47.572;10.704;2024-02-28T07:35:45;64.70;;;30.83;;
52734;SDS011;38631;47.572;10.704;2024-02-28T07:38:10;63.35;;;32.03;;
52734;SDS011;38631;47.572;10.704;2024-02-28T07:40:36;62.50;;;31.67;;
52734;SDS011;38631;47.572;10.704;2024-02-28T07:43:01;63.97;;;31.55;;
52734;SDS011;38631;47.572;10.704;2024-02-28T07:45:27;65.32;;;30.27;;
52734;SDS011;38631;47.572;10.704;2024-02-28T07:47:52;55.85;;;30.60;;
52734;SDS011;38631;47.572;10.704;2024-02-28T07:50:17;67.05;;;31.85;;
52734;SDS011;38631;47.572;10.704;2024-02-28T07:52:43;68.20;;;33.50;;
52734;SDS011;38631;47.572;10.704;2024-02-28T07:55:08;70.50;;;33.75;;
52734;SDS011;38631;47.572;10.704;2024-02-28T07:57:33;68.32;;;32.83;;
52734;SDS011;38631;47.572;10.704;2024-02-28T07:59:59;77.32;;;33.95;;
52734;SDS011;38631;47.572;10.704;2024-02-28T08:02:25;76.93;;;36.05;;
52734;SDS011;38631;47.572;10.704;2024-02-28T08:04:50;85.78;;;37.78;;
52734;SDS011;38631;47.572;10.704;2024-02-28T08:07:16;75.10;;;33.47;;
52734;SDS011;38631;47.572;10.704;2024-02-28T08:09:41;86.18;;;35.08;;
52734;SDS011;38631;47.572;10.704;2024-02-28T08:12:06;78.35;;;36.33;;
52734;SDS011;38631;47.572;10.704;2024-02-28T08:14:32;76.07;;;34.22;;
52734;SDS011;38631;47.572;10.704;2024-02-28T08:16:57;78.85;;;34.47;;
52734;SDS011;38631;47.572;10.704;2024-02-28T08:19:23;77.68;;;35.45;;
52734;SDS011;38631;47.572;10.704;2024-02-28T08:21:48;73.60;;;32.28;;
52734;SDS011;38631;47.572;10.704;2024-02-28T08:24:13;69.15;;;31.38;;
52734;SDS011;38631;47.572;10.704;2024-02-28T08:26:39;74.40;;;34.13;;
52734;SDS011;38631;47.572;10.704;2024-02-28T08:29:06;72.68;;;34.67;;
52734;SDS011;38631;47.572;10.704;2024-02-28T08:31:31;72.70;;;32.85;;
52734;SDS011;38631;47.572;10.704;2024-02-28T08:33:56;72.47;;;32.47;;
52734;SDS011;38631;47.572;10.704;2024-02-28T08:36:22;70.13;;;33.35;;
52734;SDS011;38631;47.572;10.704;2024-02-28T08:38:47;75.10;;;32.78;;
52734;SDS011;38631;47.572;10.704;2024-02-28T08:41:12;70.07;;;32.53;;
52734;SDS011;38631;47.572;10.704;2024-02-28T08:43:38;68.82;;;32.15;;
52734;SDS011;38631;47.572;10.704;2024-02-28T08:46:04;67.88;;;33.83;;
52734;SDS011;38631;47.572;10.704;2024-02-28T08:48:29;71.18;;;33.67;;
52734;SDS011;38631;47.572;10.704;2024-02-28T08:50:55;66.00;;;32.03;;
52734;SDS011;38631;47.572;10.704;2024-02-28T08:55:55;66.60;;;32.50;;
52734;SDS011;38631;47.572;10.704;2024-02-28T08:58:20;66.97;;;33.40;;
52734;SDS011;38631;47.572;10.704;2024-02-28T09:00:46;73.93;;;33.65;;
52734;SDS011;38631;47.572;10.704;2024-02-28T09:03:11;61.78;;;30.02;;
52734;SDS011;38631;47.572;10.704;2024-02-28T09:05:41;65.93;;;29.60;;
52734;SDS011;38631;47.572;10.704;2024-02-28T09:10:32;67.15;;;30.67;;
52734;SDS011;38631;47.572;10.704;2024-02-28T09:12:59;67.53;;;32.80;;
52734;SDS011;38631;47.572;10.704;2024-02-28T09:15:24;55.15;;;28.92;;
52734;SDS011;38631;47.572;10.704;2024-02-28T09:17:50;60.20;;;30.50;;
52734;SDS011;38631;47.572;10.704;2024-02-28T09:20:16;63.53;;;29.55;;
52734;SDS011;38631;47.572;10.704;2024-02-28T09:23:00;64.25;;;30.77;;
52734;SDS011;38631;47.572;10.704;2024-02-28T09:25:27;59.22;;;30.20;;
52734;SDS011;38631;47.572;10.704;2024-02-28T09:27:53;67.32;;;31.50;;
52734;SDS011;38631;47.572;10.704;2024-02-28T09:30:18;64.72;;;30.88;;
52734;SDS011;38631;47.572;10.704;2024-02-28T09:32:43;63.65;;;31.33;;
52734;SDS011;38631;47.572;10.704;2024-02-28T09:35:09;69.10;;;31.27;;
52734;SDS011;38631;47.572;10.704;2024-02-28T09:37:36;63.95;;;30.70;;
52734;SDS011;38631;47.572;10.704;2024-02-28T09:40:02;62.58;;;29.58;;
52734;SDS011;38631;47.572;10.704;2024-02-28T09:42:28;58.67;;;29.10;;
52734;SDS011;38631;47.572;10.704;2024-02-28T09:55:08;62.35;;;28.20;;
52734;SDS011;38631;47.572;10.704;2024-02-28T09:57:33;64.53;;;29.27;;
52734;SDS011;38631;47.572;10.704;2024-02-28T10:00:00;54.10;;;27.85;;
52734;SDS011;38631;47.572;10.704;2024-02-28T10:02:25;58.53;;;28.40;;
52734;SDS011;38631;47.572;10.704;2024-02-28T10:04:52;56.38;;;27.55;;
52734;SDS011;38631;47.572;10.704;2024-02-28T10:07:17;54.83;;;28.73;;
52734;SDS011;38631;47.572;10.704;2024-02-28T10:09:42;56.67;;;28.77;;
52734;SDS011;38631;47.572;10.704;2024-02-28T10:12:08;61.30;;;30.17;;
52734;SDS011;38631;47.572;10.704;2024-02-28T10:14:33;54.08;;;27.92;;
52734;SDS011;38631;47.572;10.704;2024-02-28T10:16:59;50.90;;;27.33;;
52734;SDS011;38631;47.572;10.704;2024-02-28T10:19:24;55.05;;;28.02;;
52734;SDS011;38631;47.572;10.704;2024-02-28T10:21:50;53.47;;;27.77;;
52734;SDS011;38631;47.572;10.704;2024-02-28T10:24:15;64.97;;;30.33;;
52734;SDS011;38631;47.572;10.704;2024-02-28T10:26:44;55.80;;;26.45;;
52734;SDS011;38631;47.572;10.704;2024-02-28T10:29:09;52.60;;;27.00;;
52734;SDS011;38631;47.572;10.704;2024-02-28T10:31:35;55.80;;;27.48;;
52734;SDS011;38631;47.572;10.704;2024-02-28T10:34:00;53.47;;;27.50;;
52734;SDS011;38631;47.572;10.704;2024-02-28T10:36:26;52.92;;;26.48;;
52734;SDS011;38631;47.572;10.704;2024-02-28T10:38:55;53.03;;;27.95;;
52734;SDS011;38631;47.572;10.704;2024-02-28T10:41:20;54.92;;;26.98;;
52734;SDS011;38631;47.572;10.704;2024-02-28T10:43:45;54.03;;;27.77;;
52734;SDS011;38631;47.572;10.704;2024-02-28T10:46:11;51.53;;;27.40;;
52734;SDS011;38631;47.572;10.704;2024-02-28T10:58:59;50.90;;;25.88;;
52734;SDS011;38631;47.572;10.704;2024-02-28T11:01:25;53.45;;;27.05;;
52734;SDS011;38631;47.572;10.704;2024-02-28T11:03:51;46.25;;;25.15;;
52734;SDS011;38631;47.572;10.704;2024-02-28T11:06:19;46.95;;;26.05;;
52734;SDS011;38631;47.572;10.704;2024-02-28T11:08:46;55.58;;;29.25;;
52734;SDS011;38631;47.572;10.704;2024-02-28T11:11:18;54.97;;;27.33;;
52734;SDS011;38631;47.572;10.704;2024-02-28T11:13:53;49.97;;;27.27;;
52734;SDS011;38631;47.572;10.704;2024-02-28T11:16:25;51.38;;;27.63;;
52734;SDS011;38631;47.572;10.704;2024-02-28T11:18:51;50.25;;;26.38;;
52734;SDS011;38631;47.572;10.704;2024-02-28T11:21:19;48.08;;;25.95;;
52734;SDS011;38631;47.572;10.704;2024-02-28T11:23:47;53.72;;;26.58;;
52734;SDS011;38631;47.572;10.704;2024-02-28T11:26:17;55.67;;;28.88;;
52734;SDS011;38631;47.572;10.704;2024-02-28T11:28:43;49.67;;;28.02;;
52734;SDS011;38631;47.572;10.704;2024-02-28T11:31:08;51.20;;;26.80;;
52734;SDS011;38631;47.572;10.704;2024-02-28T11:33:36;54.63;;;25.90;;
52734;SDS011;38631;47.572;10.704;2024-02-28T11:36:03;44.78;;;24.13;;
52734;SDS011;38631;47.572;10.704;2024-02-28T11:38:28;43.70;;;24.88;;
52734;SDS011;38631;47.572;10.704;2024-02-28T11:40:54;46.40;;;25.42;;
52734;SDS011;38631;47.572;10.704;2024-02-28T11:43:22;46.90;;;24.58;;
52734;SDS011;38631;47.572;10.704;2024-02-28T11:45:48;42.22;;;23.10;;
52734;SDS011;38631;47.572;10.704;2024-02-28T11:48:13;44.85;;;24.67;;
52734;SDS011;38631;47.572;10.704;2024-02-28T11:50:39;53.00;;;25.10;;
52734;SDS011;38631;47.572;10.704;2024-02-28T11:53:05;45.83;;;24.45;;
52734;SDS011;38631;47.572;10.704;2024-02-28T11:55:31;47.05;;;26.40;;
52734;SDS011;38631;47.572;10.704;2024-02-28T11:57:57;47.15;;;25.45;;
52734;SDS011;38631;47.572;10.704;2024-02-28T12:00:22;46.70;;;25.70;;
52734;SDS011;38631;47.572;10.704;2024-02-28T12:02:47;45.45;;;24.88;;
52734;SDS011;38631;47.572;10.704;2024-02-28T12:05:13;46.28;;;23.08;;
52734;SDS011;38631;47.572;10.704;2024-02-28T12:07:38;44.22;;;22.92;;
52734;SDS011;38631;47.572;10.704;2024-02-28T12:10:03;45.25;;;22.50;;
52734;SDS011;38631;47.572;10.704;2024-02-28T12:12:29;42.35;;;23.63;;
52734;SDS011;38631;47.572;10.704;2024-02-28T12:15:01;38.33;;;21.98;;
52734;SDS011;38631;47.572;10.704;2024-02-28T12:17:30;43.28;;;22.70;;
52734;SDS011;38631;47.572;10.704;2024-02-28T12:19:55;37.90;;;21.88;;
52734;SDS011;38631;47.572;10.704;2024-02-28T12:22:21;39.10;;;21.48;;
52734;SDS011;38631;47.572;10.704;2024-02-28T12:24:46;42.22;;;22.40;;
52734;SDS011;38631;47.572;10.704;2024-02-28T12:27:12;35.30;;;20.63;;
52734;SDS011;38631;47.572;10.704;2024-02-28T12:29:37;40.80;;;23.27;;
52734;SDS011;38631;47.572;10.704;2024-02-28T12:32:03;38.13;;;20.63;;
52734;SDS011;38631;47.572;10.704;2024-02-28T12:34:28;38.50;;;22.38;;
52734;SDS011;38631;47.572;10.704;2024-02-28T12:36:53;39.78;;;21.60;;
52734;SDS011;38631;47.572;10.704;2024-02-28T12:39:19;40.35;;;22.00;;
52734;SDS011;38631;47.572;10.704;2024-02-28T12:41:44;39.67;;;20.90;;
52734;SDS011;38631;47.572;10.704;2024-02-28T12:51:55;37.90;;;21.45;;
52734;SDS011;38631;47.572;10.704;2024-02-28T12:54:21;35.65;;;20.20;;
52734;SDS011;38631;47.572;10.704;2024-02-28T12:56:46;34.13;;;20.13;;
52734;SDS011;38631;47.572;10.704;2024-02-28T12:59:12;35.85;;;20.27;;
52734;SDS011;38631;47.572;10.704;2024-02-28T13:01:38;38.25;;;21.35;;
52734;SDS011;38631;47.572;10.704;2024-02-28T13:04:03;36.40;;;20.15;;
52734;SDS011;38631;47.572;10.704;2024-02-28T13:06:29;38.35;;;21.27;;
52734;SDS011;38631;47.572;10.704;2024-02-28T13:19:14;36.30;;;20.35;;
52734;SDS011;38631;47.572;10.704;2024-02-28T13:21:40;42.45;;;22.60;;
52734;SDS011;38631;47.572;10.704;2024-02-28T13:24:05;38.58;;;21.65;;
52734;SDS011;38631;47.572;10.704;2024-02-28T13:26:32;39.80;;;21.77;;
52734;SDS011;38631;47.572;10.704;2024-02-28T13:28:57;38.10;;;22.60;;
52734;SDS011;38631;47.572;10.704;2024-02-28T13:31:22;40.15;;;19.73;;
52734;SDS011;38631;47.572;10.704;2024-02-28T13:33:48;42.13;;;20.67;;
52734;SDS011;38631;47.572;10.704;2024-02-28T13:36:13;39.47;;;22.08;;
52734;SDS011;38631;47.572;10.704;2024-02-28T13:38:38;37.57;;;20.87;;
52734;SDS011;38631;47.572;10.704;2024-02-28T13:41:03;38.70;;;21.23;;
52734;SDS011;38631;47.572;10.704;2024-02-28T13:43:29;40.88;;;21.80;;
52734;SDS011;38631;47.572;10.704;2024-02-28T13:45:54;44.20;;;23.60;;
52734;SDS011;38631;47.572;10.704;2024-02-28T13:48:25;36.85;;;20.02;;
52734;SDS011;38631;47.572;10.704;2024-02-28T14:08:56;33.78;;;19.67;;
52734;SDS011;38631;47.572;10.704;2024-02-28T14:11:22;35.67;;;20.63;;
52734;SDS011;38631;47.572;10.704;2024-02-28T14:13:47;39.55;;;21.85;;
52734;SDS011;38631;47.572;10.704;2024-02-28T14:16:13;36.83;;;21.20;;
52734;SDS011;38631;47.572;10.704;2024-02-28T14:18:38;34.75;;;20.55;;
52734;SDS011;38631;47.572;10.704;2024-02-28T14:21:03;34.38;;;20.63;;
52734;SDS011;38631;47.572;10.704;2024-02-28T14:23:29;36.38;;;20.80;;
52734;SDS011;38631;47.572;10.704;2024-02-28T14:25:55;40.30;;;22.08;;
52734;SDS011;38631;47.572;10.704;2024-02-28T14:28:21;38.22;;;22.13;;
52734;SDS011;38631;47.572;10.704;2024-02-28T14:30:47;35.30;;;20.27;;
52734;SDS011;38631;47.572;10.704;2024-02-28T14:33:14;37.88;;;20.70;;
52734;SDS011;38631;47.572;10.704;2024-02-28T14:35:39;36.55;;;21.73;;
52734;SDS011;38631;47.572;10.704;2024-02-28T14:38:06;35.58;;;21.58;;
52734;SDS011;38631;47.572;10.704;2024-02-28T14:40:31;33.35;;;20.20;;
52734;SDS011;38631;47.572;10.704;2024-02-28T14:42:57;36.20;;;21.13;;
52734;SDS011;38631;47.572;10.704;2024-02-28T14:45:22;36.45;;;21.55;;
52734;SDS011;38631;47.572;10.704;2024-02-28T14:47:49;37.15;;;21.27;;
52734;SDS011;38631;47.572;10.704;2024-02-28T14:50:15;33.08;;;19.27;;
52734;SDS011;38631;47.572;10.704;2024-02-28T14:52:40;35.72;;;18.77;;
52734;SDS011;38631;47.572;10.704;2024-02-28T14:55:06;33.20;;;18.15;;
52734;SDS011;38631;47.572;10.704;2024-02-28T14:57:32;34.92;;;20.40;;
52734;SDS011;38631;47.572;10.704;2024-02-28T14:59:57;35.58;;;21.08;;
52734;SDS011;38631;47.572;10.704;2024-02-28T15:02:23;31.80;;;19.10;;
52734;SDS011;38631;47.572;10.704;2024-02-28T15:04:48;34.55;;;19.38;;
52734;SDS011;38631;47.572;10.704;2024-02-28T15:07:15;30.40;;;19.45;;
52734;SDS011;38631;47.572;10.704;2024-02-28T15:09:40;37.17;;;20.50;;
52734;SDS011;38631;47.572;10.704;2024-02-28T15:12:06;33.20;;;19.65;;
52734;SDS011;38631;47.572;10.704;2024-02-28T15:14:31;35.00;;;19.80;;
52734;SDS011;38631;47.572;10.704;2024-02-28T15:16:58;38.22;;;20.40;;
52734;SDS011;38631;47.572;10.704;2024-02-28T15:40:02;40.35;;;20.95;;
52734;SDS011;38631;47.572;10.704;2024-02-28T15:42:31;41.70;;;22.73;;
52734;SDS011;38631;47.572;10.704;2024-02-28T15:44:56;38.60;;;21.45;;
52734;SDS011;38631;47.572;10.704;2024-02-28T15:47:21;38.83;;;22.23;;
52734;SDS011;38631;47.572;10.704;2024-02-28T15:49:47;41.70;;;21.77;;
52734;SDS011;38631;47.572;10.704;2024-02-28T15:52:12;44.63;;;24.77;;
52734;SDS011;38631;47.572;10.704;2024-02-28T15:54:37;46.60;;;23.97;;
52734;SDS011;38631;47.572;10.704;2024-02-28T15:57:03;42.08;;;23.25;;
52734;SDS011;38631;47.572;10.704;2024-02-28T15:59:28;44.88;;;24.50;;
52734;SDS011;38631;47.572;10.704;2024-02-28T16:01:53;48.73;;;27.63;;
52734;SDS011;38631;47.572;10.704;2024-02-28T16:04:19;59.13;;;28.85;;
52734;SDS011;38631;47.572;10.704;2024-02-28T16:06:44;56.03;;;29.60;;
52734;SDS011;38631;47.572;10.704;2024-02-28T16:09:09;63.10;;;31.83;;
52734;SDS011;38631;47.572;10.704;2024-02-28T16:11:34;55.92;;;28.95;;
52734;SDS011;38631;47.572;10.704;2024-02-28T16:14:00;55.43;;;28.83;;
52734;SDS011;38631;47.572;10.704;2024-02-28T16:16:25;59.60;;;30.77;;
52734;SDS011;38631;47.572;10.704;2024-02-28T16:18:51;58.08;;;31.70;;
52734;SDS011;38631;47.572;10.704;2024-02-28T16:21:17;57.70;;;29.92;;
52734;SDS011;38631;47.572;10.704;2024-02-28T16:23:43;60.30;;;30.02;;
52734;SDS011;38631;47.572;10.704;2024-02-28T16:26:08;57.50;;;30.52;;
52734;SDS011;38631;47.572;10.704;2024-02-28T16:28:34;53.97;;;30.35;;
52734;SDS011;38631;47.572;10.704;2024-02-28T16:31:00;56.60;;;30.27;;
52734;SDS011;38631;47.572;10.704;2024-02-28T16:33:25;59.22;;;29.75;;
52734;SDS011;38631;47.572;10.704;2024-02-28T16:35:51;59.72;;;30.42;;
52734;SDS011;38631;47.572;10.704;2024-02-28T16:38:16;64.10;;;33.07;;